createdAt,value
2023-04-02T00:01:42.250Z,4.9
2023-04-02T00:07:32.154Z,4.5
2023-04-02T00:13:25.734Z,4
2023-04-02T00:19:11.860Z,4
2023-04-02T00:24:58.147Z,4.1
2023-04-02T00:30:47.367Z,4.4
2023-04-02T00:36:33.475Z,3.6
2023-04-02T00:42:18.449Z,2.9
2023-04-02T00:48:03.709Z,3.4
2023-04-02T00:53:48.490Z,3
2023-04-02T00:59:34.660Z,3.1
2023-04-02T01:05:27.714Z,4.8
2023-04-02T01:11:17.873Z,3.4
2023-04-02T01:17:06.926Z,3
2023-04-02T01:22:55.105Z,3.9
2023-04-02T01:28:39.253Z,3.1
2023-04-02T01:34:27.926Z,2.8
2023-04-02T01:40:21.967Z,3.3
2023-04-02T01:46:08.541Z,3
2023-04-02T01:51:54.155Z,3.7
2023-04-02T01:57:38.298Z,2.7
2023-04-02T02:03:23.030Z,3.2
2023-04-02T02:09:07.919Z,3.2
2023-04-02T02:14:55.163Z,2.7
2023-04-02T02:20:39.177Z,3.5
2023-04-02T02:26:23.806Z,3
2023-04-02T02:32:09.869Z,3.3
2023-04-02T02:37:55.903Z,3.4
2023-04-02T02:43:43.160Z,3.8
2023-04-02T02:49:29.282Z,4
2023-04-02T02:55:15.617Z,3.8
2023-04-02T03:00:59.842Z,3.8
2023-04-02T03:06:44.095Z,4.4
2023-04-02T03:12:38.280Z,4.2
2023-04-02T03:18:27.341Z,4.3
2023-04-02T03:24:15.688Z,4
2023-04-02T03:30:04.357Z,3.6
2023-04-02T03:35:51.035Z,4
2023-04-02T03:41:38.072Z,4.3
2023-04-02T03:47:24.108Z,4.4
2023-04-02T03:53:08.535Z,4.1
2023-04-02T03:58:55.527Z,4.4
2023-04-02T04:04:43.761Z,3.9
2023-04-02T04:10:29.395Z,4.3
2023-04-02T04:16:15.546Z,4.1
2023-04-02T04:22:04.403Z,4.1
2023-04-02T04:27:54.037Z,4.3
2023-04-02T04:33:42.353Z,4.6
2023-04-02T04:39:28.650Z,4.9
2023-04-02T04:45:16.933Z,4.9
2023-04-02T04:51:03.092Z,5.2
2023-04-02T04:56:49.047Z,5.5
2023-04-02T05:02:37.385Z,5.9
2023-04-02T05:08:24.002Z,6.9
2023-04-02T05:14:10.094Z,7.6
2023-04-02T05:19:56.463Z,7.5
2023-04-02T05:25:41.460Z,7.1
2023-04-02T05:31:27.877Z,8.2
2023-04-02T05:37:16.842Z,6.9
2023-04-02T05:43:02.277Z,7.6
2023-04-02T05:48:47.530Z,7.7
2023-04-02T05:54:34.075Z,7.7
2023-04-02T06:00:22.298Z,7.5
2023-04-02T06:06:09.811Z,7.8
2023-04-02T06:11:56.031Z,8.9
2023-04-02T06:17:45.188Z,8.6
2023-04-02T06:23:32.239Z,8.3
2023-04-02T06:29:20.913Z,7.9
2023-04-02T06:35:05.078Z,8.5
2023-04-02T06:40:52.001Z,9.2
2023-04-02T06:46:39.164Z,9.5
2023-04-02T06:52:26.530Z,9.1
2023-04-02T06:58:12.046Z,8.2
2023-04-02T07:03:56.220Z,8.7
2023-04-02T07:09:40.247Z,9.2
2023-04-02T07:15:24.992Z,9.5
2023-04-02T07:21:09.250Z,8.6
2023-04-02T07:26:53.259Z,7.8
2023-04-02T07:32:37.528Z,7.6
2023-04-02T07:38:21.566Z,8
2023-04-02T07:44:07.280Z,9
2023-04-02T07:49:51.539Z,8
2023-04-02T07:55:36.526Z,8.3
2023-04-02T08:01:22.538Z,7.9
2023-04-02T08:07:06.513Z,8.3
2023-04-02T08:12:50.808Z,7.1
2023-04-02T08:18:34.821Z,7.5
2023-04-02T08:24:18.834Z,8
2023-04-02T08:30:03.158Z,7.5
2023-04-02T08:35:47.366Z,7.1
2023-04-02T08:41:31.546Z,8.9
2023-04-02T08:47:17.511Z,8.5
2023-04-02T08:53:02.093Z,8
2023-04-02T08:58:47.823Z,8.7
2023-04-02T09:04:32.048Z,8.1
2023-04-02T09:10:20.028Z,9.5
2023-04-02T09:16:07.174Z,10.7
2023-04-02T09:21:55.796Z,10.6
2023-04-02T09:27:39.950Z,9.4
2023-04-02T09:33:29.212Z,10.3
2023-04-02T09:39:18.158Z,9
2023-04-02T09:45:09.081Z,8.6
2023-04-02T09:50:53.206Z,8.2
2023-04-02T09:56:39.368Z,7.7
2023-04-02T10:02:32.880Z,7.7
2023-04-02T10:08:21.949Z,7.9
2023-04-02T10:14:08.005Z,6.6
2023-04-02T10:19:54.274Z,8.4
2023-04-02T10:25:43.377Z,6.5
2023-04-02T10:31:29.458Z,7.3
2023-04-02T10:37:21.848Z,7
2023-04-02T10:43:11.544Z,6.7
2023-04-02T10:49:00.508Z,8.1
2023-04-02T10:54:48.128Z,7.3
2023-04-02T11:00:33.587Z,7
2023-04-02T11:06:22.472Z,78.2
2023-04-02T11:12:08.984Z,105.4
2023-04-02T11:17:53.419Z,161
2023-04-02T11:23:38.555Z,132.6
2023-04-02T11:29:24.764Z,256
2023-04-02T11:35:22.614Z,192.7
2023-04-02T11:41:06.695Z,172.2
2023-04-02T11:46:51.277Z,159.4
2023-04-02T11:52:37.363Z,135.8
2023-04-02T11:58:41.373Z,133.3
2023-04-02T12:04:42.438Z,121.7
2023-04-02T12:10:27.469Z,109
2023-04-02T12:16:12.554Z,109.1
2023-04-02T12:21:56.611Z,86.1
2023-04-02T12:27:40.633Z,83.5
2023-04-02T12:33:32.222Z,75.1
2023-04-02T12:39:20.324Z,69.4
2023-04-02T12:45:04.746Z,63.8
2023-04-02T12:50:48.955Z,57.1
2023-04-02T12:56:33.138Z,51.9
2023-04-02T13:02:23.953Z,52
2023-04-02T13:08:19.182Z,48.3
2023-04-02T13:14:04.706Z,41.8
2023-04-02T13:19:48.932Z,39.7
2023-04-02T13:25:35.335Z,34.6
2023-04-02T13:31:21.232Z,35.5
2023-04-02T13:37:05.577Z,32.1
2023-04-02T13:42:59.341Z,29
2023-04-02T13:48:43.849Z,28.5
2023-04-02T13:54:32.129Z,24.5
2023-04-02T14:00:17.046Z,23.2
2023-04-02T14:06:05.837Z,20
2023-04-02T14:11:55.175Z,19.9
2023-04-02T14:17:45.295Z,18.8
2023-04-02T14:23:38.045Z,17.6
2023-04-02T14:29:30.543Z,15.5
2023-04-02T14:35:18.989Z,14.7
2023-04-02T14:41:07.788Z,14.4
2023-04-02T14:46:53.425Z,15.1
2023-04-02T14:52:38.330Z,13.5
2023-04-02T14:58:26.489Z,14.6
2023-04-02T15:04:14.195Z,14.5
2023-04-02T15:10:03.530Z,12.8
2023-04-02T15:15:49.569Z,11.8
2023-04-02T15:21:58.556Z,9.6
2023-04-02T15:27:52.694Z,9.6
2023-04-02T15:33:43.618Z,10.1
2023-04-02T15:39:44.748Z,8.7
2023-04-02T15:45:32.776Z,8.3
2023-04-02T15:51:23.491Z,7.4
2023-04-02T15:57:14.650Z,6.3
2023-04-02T16:03:12.519Z,6.7
2023-04-02T16:09:05.399Z,5.7
2023-04-02T16:14:50.627Z,5.5
2023-04-02T16:20:38.056Z,7.7
2023-04-02T16:26:32.826Z,6.3
2023-04-02T16:32:22.192Z,6.2
2023-04-02T16:38:12.003Z,11
2023-04-02T16:44:01.730Z,9.2
2023-04-02T16:49:50.738Z,7.7
2023-04-02T16:55:39.987Z,7.3
2023-04-02T17:01:28.738Z,7.1
2023-04-02T17:07:13.989Z,7.5
2023-04-02T17:13:02.433Z,5.3
2023-04-02T17:18:49.460Z,7.2
2023-04-02T17:24:35.167Z,5.5
2023-04-02T17:30:21.786Z,5.7
2023-04-02T17:36:12.909Z,6.8
2023-04-02T17:42:01.833Z,7.1
2023-04-02T17:47:50.897Z,5.3
2023-04-02T17:53:46.608Z,4.5
2023-04-02T17:59:38.082Z,5.5
2023-04-02T18:05:27.559Z,5.2
2023-04-02T18:11:14.937Z,6.5
2023-04-02T18:17:04.123Z,6
2023-04-02T18:22:52.874Z,6.5
2023-04-02T18:28:50.874Z,5.2
2023-04-02T18:34:47.016Z,5.6
2023-04-02T18:40:38.669Z,5
2023-04-02T18:46:25.678Z,5.6
2023-04-02T18:52:14.639Z,5.8
2023-04-02T18:58:00.545Z,5.1
2023-04-02T19:03:47.833Z,4.7
2023-04-02T19:09:34.946Z,4.9
2023-04-02T19:15:22.490Z,7
2023-04-02T19:21:13.950Z,4.7
2023-04-02T19:27:02.051Z,4.3
2023-04-02T19:32:51.425Z,4.8
2023-04-02T19:38:45.233Z,5.8
2023-04-02T19:44:30.299Z,4
2023-04-02T19:50:14.853Z,5
2023-04-02T19:55:58.882Z,4.9
2023-04-02T20:01:42.887Z,4.6
2023-04-02T20:07:26.979Z,4.9
2023-04-02T20:13:11.379Z,4.7
2023-04-02T20:18:55.865Z,3.6
2023-04-02T20:24:40.041Z,4.9
2023-04-02T20:30:24.202Z,5.6
2023-04-02T20:36:10.311Z,4.5
2023-04-02T20:41:54.299Z,5.3
2023-04-02T20:47:39.055Z,4.7
2023-04-02T20:53:24.230Z,4.1
2023-04-02T20:59:08.135Z,4.4
2023-04-02T21:04:52.485Z,5.7
2023-04-02T21:10:37.429Z,4.7
2023-04-02T21:16:22.316Z,5.3
2023-04-02T21:22:06.552Z,5.6
2023-04-02T21:27:50.588Z,6
2023-04-02T21:33:35.052Z,6
2023-04-02T21:39:19.824Z,5.6
2023-04-02T21:45:03.830Z,6
2023-04-02T21:50:47.865Z,5.3
2023-04-02T21:56:32.678Z,5.7
2023-04-02T22:02:16.718Z,5.8
2023-04-02T22:08:00.769Z,5.9
2023-04-02T22:13:45.159Z,5.5
2023-04-02T22:19:29.318Z,6.3
2023-04-02T22:25:13.700Z,6
2023-04-02T22:30:58.325Z,6.2
2023-04-02T22:36:42.474Z,5.9
2023-04-02T22:42:26.399Z,6.4
2023-04-02T22:48:10.483Z,5.8
2023-04-02T22:53:56.105Z,6.1
2023-04-02T22:59:40.015Z,5.5
2023-04-02T23:05:25.405Z,5.8
2023-04-02T23:11:10.238Z,6.5
2023-04-02T23:16:54.188Z,4.9
2023-04-02T23:22:38.039Z,5.9
2023-04-02T23:28:22.097Z,5.6
2023-04-02T23:34:06.632Z,5.9
2023-04-02T23:39:50.777Z,6.1
2023-04-02T23:45:34.946Z,6
2023-04-02T23:51:19.171Z,5.8
2023-04-02T23:57:03.279Z,7.1
